Bookmark and Share
Track history (hours):
 

Toyofukumaru

Last reported at 2014-Apr-16 21:33 UTC. Time now 2014-Apr-16 22:20 UTC.
Position N 34°33' E 135°05'.

Length 165 m; draft 6.2 m.

Type: Cargo ship. MMSI: 431200688.

NotesDate/timePositionNaut miles runAvg speedWind from/ knotsBaromVisibWave heightAir tempDewpointWater temp
2014-Apr-16 21:33N 34°33' E 135°05'1919.2
2014-Apr-16 20:33N 34°14' E 134°59'1919.2
2014-Apr-16 19:33N 33°55' E 134°58'171 6.1
2014-Apr-15 15:22N 34°29' E 138°21'6613.8
2014-Apr-15 10:34N 34°59' E 139°32'1717.3
2014-Apr-15 09:34N 35°12' E 139°46'1211.7
2014-Apr-15 08:34N 35°23' E 139°41'1 1.4
2014-Apr-15 07:33N 35°23' E 139°39'0 0.0
2014-Apr-15 06:33N 35°23' E 139°39'0 0.0
2014-Apr-15 05:33N 35°23' E 139°39'5 2.7
2014-Apr-15 03:34N 35°26' E 139°45'1817.6
2014-Apr-15 02:34N 35°35' E 140°03'2 2.0
2014-Apr-15 01:30N 35°36' E 140°06'0 0.0
2014-Apr-14 21:33N 35°36' E 140°06'0 0.0
2014-Apr-14 20:33N 35°36' E 140°06'0 0.0
2014-Apr-14 19:33N 35°36' E 140°06'9 9.3
2014-Apr-14 18:34N 35°31' E 139°56'1514.9
2014-Apr-14 17:34N 35°20' E 139°44'1413.7
2014-Apr-14 16:34N 35°06' E 139°45'1919.1
2014-Apr-14 15:34N 34°54' E 139°27'229 7.2
2014-Apr-13 07:33N 33°57' E 134°58'1919.6
2014-Apr-13 06:34N 34°16' E 134°59'2019.5
2014-Apr-13 05:33N 34°35' E 135°03'2019.8
2014-Apr-13 04:32N 34°30' E 134°39'3 0.1
2014-Apr-11 01:14N 34°30' E 134°36'1319.6
2014-Apr-11 00:32N 34°35' E 134°51'1212.1
2014-Apr-10 23:33N 34°29' E 135°04'1919.3
2014-Apr-10 22:33N 34°10' E 134°59'177 6.3
2014-Apr-09 18:20N 34°29' E 138°32'3419.1
2014-Apr-09 16:33N 34°42' E 139°11'2020.4
2014-Apr-09 15:33N 34°56' E 139°28'2019.6
2014-Apr-09 14:34N 35°10' E 139°45'1312.8
2014-Apr-09 13:34N 35°23' E 139°41'2 2.0
2014-Apr-09 12:34N 35°23' E 139°39'0 0.0
2014-Apr-09 11:34N 35°23' E 139°39'0 0.0
2014-Apr-09 10:31N 35°23' E 139°39'0 0.0
2014-Apr-09 09:34N 35°23' E 139°39'0 0.0
2014-Apr-09 08:31N 35°23' E 139°39'0 0.0
2014-Apr-09 07:31N 35°23' E 139°39'0 0.0
2014-Apr-09 06:34N 35°23' E 139°39'0 0.0
2014-Apr-09 05:31N 35°23' E 139°39'7 7.8
2014-Apr-09 04:33N 35°27' E 139°47'1717.1
2014-Apr-09 03:33N 35°36' E 140°05'0 0.2
2014-Apr-09 02:27N 35°36' E 140°05'0 0.0
2014-Apr-09 01:33N 35°36' E 140°05'0 0.0
2014-Apr-09 00:33N 35°36' E 140°05'0 0.0
2014-Apr-08 23:33N 35°36' E 140°05'0 0.0
2014-Apr-08 22:33N 35°36' E 140°05'2 1.8
2014-Apr-08 21:33N 35°35' E 140°03'1616.2
2014-Apr-08 20:34N 35°25' E 139°48'1010.3
2014-Apr-08 19:33N 35°15' E 139°47'1616.2
2014-Apr-08 18:34N 35°00' E 139°39'1919.5
2014-Apr-08 17:33N 34°48' E 139°20'223 7.2
2014-Apr-07 10:27N 33°51' E 134°59'1719.6
2014-Apr-07 09:33N 34°09' E 134°59'2020.1
2014-Apr-07 08:33N 34°29' E 135°02'10 9.9
2014-Apr-07 07:33N 34°34' E 134°52'  

Dump ship's entire track history

sailing weather and tide predictions

Toyofukumaru — JD2177 — position and weather